sensor_id;sensor_type;location;lat;lon;timestamp;P1;P2;P0
44933;PMS3003;30667;43.614;1.442;2023-04-01T00:00:19;7.00;6.25;1.00
44933;PMS3003;30667;43.614;1.442;2023-04-01T00:02:45;5.40;4.80;1.00
44933;PMS3003;30667;43.614;1.442;2023-04-01T00:05:11;10.40;7.00;2.00
44933;PMS3003;30667;43.614;1.442;2023-04-01T00:07:37;8.40;6.40;1.00
44933;PMS3003;30667;43.614;1.442;2023-04-01T00:10:04;6.40;6.00;1.00
44933;PMS3003;30667;43.614;1.442;2023-04-01T00:12:31;6.00;4.60;0.60
44933;PMS3003;30667;43.614;1.442;2023-04-01T00:14:57;8.75;6.50;1.00
44933;PMS3003;30667;43.614;1.442;2023-04-01T00:17:22;7.50;4.50;0.25
44933;PMS3003;30667;43.614;1.442;2023-04-01T00:19:48;7.25;5.00;1.00
44933;PMS3003;30667;43.614;1.442;2023-04-01T00:22:13;6.25;5.25;0.75
44933;PMS3003;30667;43.614;1.442;2023-04-01T00:24:38;9.50;6.00;1.00
44933;PMS3003;30667;43.614;1.442;2023-04-01T00:27:04;6.75;5.75;1.00
44933;PMS3003;30667;43.614;1.442;2023-04-01T00:29:30;7.50;5.00;0.00
44933;PMS3003;30667;43.614;1.442;2023-04-01T00:31:58;9.50;6.25;0.25
44933;PMS3003;30667;43.614;1.442;2023-04-01T00:34:24;6.00;4.80;1.00
44933;PMS3003;30667;43.614;1.442;2023-04-01T00:36:50;6.80;4.80;0.40
44933;PMS3003;30667;43.614;1.442;2023-04-01T00:39:17;9.80;6.80;1.00
44933;PMS3003;30667;43.614;1.442;2023-04-01T00:41:42;5.75;5.50;1.00
44933;PMS3003;30667;43.614;1.442;2023-04-01T00:44:11;10.75;5.75;1.00
44933;PMS3003;30667;43.614;1.442;2023-04-01T00:46:46;8.20;5.20;0.00
44933;PMS3003;30667;43.614;1.442;2023-04-01T00:49:12;5.60;4.80;0.60
44933;PMS3003;30667;43.614;1.442;2023-04-01T00:51:39;8.20;5.80;1.00
44933;PMS3003;30667;43.614;1.442;2023-04-01T00:54:07;5.00;2.80;0.00
44933;PMS3003;30667;43.614;1.442;2023-04-01T00:56:35;11.40;7.00;1.00
44933;PMS3003;30667;43.614;1.442;2023-04-01T00:59:09;6.80;5.60;1.00
44933;PMS3003;30667;43.614;1.442;2023-04-01T01:01:39;9.20;6.00;1.00
44933;PMS3003;30667;43.614;1.442;2023-04-01T01:04:05;9.20;6.60;1.00
44933;PMS3003;30667;43.614;1.442;2023-04-01T01:14:48;7.00;3.50;0.00
44933;PMS3003;30667;43.614;1.442;2023-04-01T01:17:25;9.20;5.20;1.00
44933;PMS3003;30667;43.614;1.442;2023-04-01T01:22:51;7.80;6.40;1.00
44933;PMS3003;30667;43.614;1.442;2023-04-01T01:31:32;6.80;3.40;0.00
44933;PMS3003;30667;43.614;1.442;2023-04-01T01:36:59;5.20;5.20;1.00
44933;PMS3003;30667;43.614;1.442;2023-04-01T01:39:31;10.40;6.20;1.00
44933;PMS3003;30667;43.614;1.442;2023-04-01T01:42:01;6.80;6.20;0.00
44933;PMS3003;30667;43.614;1.442;2023-04-01T01:44:30;6.80;6.00;1.00
44933;PMS3003;30667;43.614;1.442;2023-04-01T01:46:59;14.60;7.00;1.00
44933;PMS3003;30667;43.614;1.442;2023-04-01T01:49:25;3.80;3.40;0.20
44933;PMS3003;30667;43.614;1.442;2023-04-01T01:51:55;11.40;5.80;0.60
44933;PMS3003;30667;43.614;1.442;2023-04-01T01:54:21;7.00;5.20;0.40
44933;PMS3003;30667;43.614;1.442;2023-04-01T01:56:47;10.50;6.00;0.75
44933;PMS3003;30667;43.614;1.442;2023-04-01T01:59:16;5.60;3.00;0.20
44933;PMS3003;30667;43.614;1.442;2023-04-01T02:01:47;6.60;5.00;0.00
44933;PMS3003;30667;43.614;1.442;2023-04-01T02:04:15;8.20;5.80;1.00
44933;PMS3003;30667;43.614;1.442;2023-04-01T02:06:55;5.20;3.00;0.00
44933;PMS3003;30667;43.614;1.442;2023-04-01T02:09:25;10.20;5.60;1.00
44933;PMS3003;30667;43.614;1.442;2023-04-01T02:17:30;7.40;4.20;0.00
44933;PMS3003;30667;43.614;1.442;2023-04-01T02:19:58;5.40;3.00;0.80
44933;PMS3003;30667;43.614;1.442;2023-04-01T02:22:43;11.20;5.00;0.00
44933;PMS3003;30667;43.614;1.442;2023-04-01T02:25:14;9.00;6.00;0.20
44933;PMS3003;30667;43.614;1.442;2023-04-01T02:27:44;8.20;6.00;0.00
44933;PMS3003;30667;43.614;1.442;2023-04-01T02:30:11;5.80;5.00;1.00
44933;PMS3003;30667;43.614;1.442;2023-04-01T02:32:39;5.80;4.60;0.80
44933;PMS3003;30667;43.614;1.442;2023-04-01T02:35:05;8.00;6.20;1.00
44933;PMS3003;30667;43.614;1.442;2023-04-01T02:37:33;6.00;5.00;1.00
44933;PMS3003;30667;43.614;1.442;2023-04-01T02:40:03;7.60;6.00;0.00
44933;PMS3003;30667;43.614;1.442;2023-04-01T02:42:34;5.80;5.00;0.80
44933;PMS3003;30667;43.614;1.442;2023-04-01T02:45:00;9.50;6.00;1.00
44933;PMS3003;30667;43.614;1.442;2023-04-01T02:47:25;6.00;5.50;1.00
44933;PMS3003;30667;43.614;1.442;2023-04-01T02:49:51;7.00;5.75;1.00
44933;PMS3003;30667;43.614;1.442;2023-04-01T02:52:22;7.80;6.80;1.00
44933;PMS3003;30667;43.614;1.442;2023-04-01T02:54:48;9.80;7.00;1.00
44933;PMS3003;30667;43.614;1.442;2023-04-01T02:57:13;10.00;8.00;0.25
44933;PMS3003;30667;43.614;1.442;2023-04-01T02:59:39;8.00;6.00;2.00
44933;PMS3003;30667;43.614;1.442;2023-04-01T03:02:05;10.50;9.75;1.00
44933;PMS3003;30667;43.614;1.442;2023-04-01T03:04:31;14.00;9.40;2.00
44933;PMS3003;30667;43.614;1.442;2023-04-01T03:06:57;11.00;10.80;1.80
44933;PMS3003;30667;43.614;1.442;2023-04-01T03:09:23;10.50;5.00;0.00
44933;PMS3003;30667;43.614;1.442;2023-04-01T03:11:48;8.50;6.25;1.25
44933;PMS3003;30667;43.614;1.442;2023-04-01T03:14:14;6.00;6.00;1.00
44933;PMS3003;30667;43.614;1.442;2023-04-01T03:16:39;6.50;6.00;0.75
44933;PMS3003;30667;43.614;1.442;2023-04-01T03:19:04;11.25;6.25;1.00
44933;PMS3003;30667;43.614;1.442;2023-04-01T03:21:30;6.25;5.25;0.00
44933;PMS3003;30667;43.614;1.442;2023-04-01T03:23:55;21.75;18.50;10.00
44933;PMS3003;30667;43.614;1.442;2023-04-01T03:26:21;13.25;9.00;2.50
44933;PMS3003;30667;43.614;1.442;2023-04-01T03:28:46;10.75;7.00;1.00
44933;PMS3003;30667;43.614;1.442;2023-04-01T03:31:12;9.25;6.50;0.25
44933;PMS3003;30667;43.614;1.442;2023-04-01T03:33:38;10.00;6.80;1.00
44933;PMS3003;30667;43.614;1.442;2023-04-01T03:36:03;9.25;5.75;1.00
44933;PMS3003;30667;43.614;1.442;2023-04-01T03:38:35;7.60;6.40;1.00
44933;PMS3003;30667;43.614;1.442;2023-04-01T03:41:01;7.00;5.40;0.60
44933;PMS3003;30667;43.614;1.442;2023-04-01T03:43:27;4.20;3.00;0.00
44933;PMS3003;30667;43.614;1.442;2023-04-01T03:45:52;13.50;6.50;0.00
44933;PMS3003;30667;43.614;1.442;2023-04-01T03:48:19;7.00;3.80;0.20
44933;PMS3003;30667;43.614;1.442;2023-04-01T03:50:46;7.00;5.60;1.20
44933;PMS3003;30667;43.614;1.442;2023-04-01T03:53:12;8.20;6.40;1.00
44933;PMS3003;30667;43.614;1.442;2023-04-01T03:55:38;8.25;5.50;0.00
44933;PMS3003;30667;43.614;1.442;2023-04-01T03:58:04;4.20;2.80;0.00
44933;PMS3003;30667;43.614;1.442;2023-04-01T04:00:31;6.60;5.00;0.20
44933;PMS3003;30667;43.614;1.442;2023-04-01T04:02:57;6.00;4.50;0.00
44933;PMS3003;30667;43.614;1.442;2023-04-01T04:05:23;6.80;6.00;0.00
44933;PMS3003;30667;43.614;1.442;2023-04-01T04:07:49;9.40;6.20;0.60
44933;PMS3003;30667;43.614;1.442;2023-04-01T04:10:15;7.25;5.00;1.00
44933;PMS3003;30667;43.614;1.442;2023-04-01T04:12:40;6.75;5.25;1.00
44933;PMS3003;30667;43.614;1.442;2023-04-01T04:15:06;12.00;6.00;1.00
44933;PMS3003;30667;43.614;1.442;2023-04-01T04:17:32;5.80;4.20;1.00
44933;PMS3003;30667;43.614;1.442;2023-04-01T04:19:57;6.00;5.00;0.50
44933;PMS3003;30667;43.614;1.442;2023-04-01T04:22:23;7.25;5.00;1.00
44933;PMS3003;30667;43.614;1.442;2023-04-01T04:24:48;10.50;5.00;0.00
44933;PMS3003;30667;43.614;1.442;2023-04-01T04:27:14;8.00;5.00;0.00
44933;PMS3003;30667;43.614;1.442;2023-04-01T04:29:40;6.50;5.00;0.25
44933;PMS3003;30667;43.614;1.442;2023-04-01T04:32:05;7.00;6.00;0.50
44933;PMS3003;30667;43.614;1.442;2023-04-01T04:34:31;6.00;6.00;0.25
44933;PMS3003;30667;43.614;1.442;2023-04-01T04:36:56;7.60;5.00;0.00
44933;PMS3003;30667;43.614;1.442;2023-04-01T04:39:22;10.50;6.00;1.00
44933;PMS3003;30667;43.614;1.442;2023-04-01T04:41:47;6.75;3.50;0.00
44933;PMS3003;30667;43.614;1.442;2023-04-01T04:44:13;9.50;4.50;0.25
44933;PMS3003;30667;43.614;1.442;2023-04-01T04:46:38;8.75;5.75;0.50
44933;PMS3003;30667;43.614;1.442;2023-04-01T04:49:04;6.60;4.60;0.00
44933;PMS3003;30667;43.614;1.442;2023-04-01T04:51:30;7.80;5.80;1.00
44933;PMS3003;30667;43.614;1.442;2023-04-01T04:53:58;4.60;4.60;0.00
44933;PMS3003;30667;43.614;1.442;2023-04-01T04:56:25;6.60;5.20;0.00
44933;PMS3003;30667;43.614;1.442;2023-04-01T04:58:51;9.00;6.40;0.40
44933;PMS3003;30667;43.614;1.442;2023-04-01T05:01:17;7.00;7.00;0.20
44933;PMS3003;30667;43.614;1.442;2023-04-01T05:03:42;8.00;6.00;1.00
44933;PMS3003;30667;43.614;1.442;2023-04-01T05:06:09;5.50;5.50;0.75
44933;PMS3003;30667;43.614;1.442;2023-04-01T05:08:36;7.60;5.20;1.00
44933;PMS3003;30667;43.614;1.442;2023-04-01T05:11:03;12.40;5.60;0.80
44933;PMS3003;30667;43.614;1.442;2023-04-01T05:13:36;7.20;6.40;0.40
44933;PMS3003;30667;43.614;1.442;2023-04-01T05:16:02;10.50;5.00;1.00
44933;PMS3003;30667;43.614;1.442;2023-04-01T05:18:27;9.00;5.00;0.50
44933;PMS3003;30667;43.614;1.442;2023-04-01T05:20:53;8.50;7.00;1.00
44933;PMS3003;30667;43.614;1.442;2023-04-01T05:23:20;7.00;6.60;1.00
44933;PMS3003;30667;43.614;1.442;2023-04-01T05:25:47;5.40;3.20;0.00
44933;PMS3003;30667;43.614;1.442;2023-04-01T05:28:14;7.80;6.20;0.80
44933;PMS3003;30667;43.614;1.442;2023-04-01T05:30:40;7.00;6.00;0.50
44933;PMS3003;30667;43.614;1.442;2023-04-01T05:33:07;8.40;5.40;0.80
44933;PMS3003;30667;43.614;1.442;2023-04-01T05:35:33;9.20;5.80;1.00
44933;PMS3003;30667;43.614;1.442;2023-04-01T05:37:59;9.00;6.00;0.50
44933;PMS3003;30667;43.614;1.442;2023-04-01T05:40:24;7.50;6.00;1.00
44933;PMS3003;30667;43.614;1.442;2023-04-01T05:42:50;9.75;6.00;0.25
44933;PMS3003;30667;43.614;1.442;2023-04-01T05:45:15;6.25;5.00;1.00
44933;PMS3003;30667;43.614;1.442;2023-04-01T05:47:41;9.75;5.00;1.00
44933;PMS3003;30667;43.614;1.442;2023-04-01T05:50:07;8.40;4.60;0.40
44933;PMS3003;30667;43.614;1.442;2023-04-01T05:52:34;7.00;5.00;0.20
44933;PMS3003;30667;43.614;1.442;2023-04-01T05:54:59;6.25;5.25;0.50
44933;PMS3003;30667;43.614;1.442;2023-04-01T05:57:25;10.75;6.25;0.00
44933;PMS3003;30667;43.614;1.442;2023-04-01T05:59:51;7.40;6.00;0.00
44933;PMS3003;30667;43.614;1.442;2023-04-01T06:02:17;7.50;6.50;0.00
44933;PMS3003;30667;43.614;1.442;2023-04-01T06:04:43;7.20;4.60;0.00
44933;PMS3003;30667;43.614;1.442;2023-04-01T06:07:10;5.40;5.40;1.00
44933;PMS3003;30667;43.614;1.442;2023-04-01T06:09:37;11.20;7.20;1.00
44933;PMS3003;30667;43.614;1.442;2023-04-01T06:15:28;6.60;5.40;0.80
44933;PMS3003;30667;43.614;1.442;2023-04-01T06:48:01;6.40;5.60;1.00
44933;PMS3003;30667;43.614;1.442;2023-04-01T06:53:05;6.40;5.00;0.80
44933;PMS3003;30667;43.614;1.442;2023-04-01T06:55:59;8.00;6.20;1.00
44933;PMS3003;30667;43.614;1.442;2023-04-01T06:58:31;7.00;6.00;0.60
44933;PMS3003;30667;43.614;1.442;2023-04-01T07:01:10;8.60;5.00;1.00
44933;PMS3003;30667;43.614;1.442;2023-04-01T07:03:43;5.40;5.20;0.20
44933;PMS3003;30667;43.614;1.442;2023-04-01T07:06:25;4.60;4.20;0.60
44933;PMS3003;30667;43.614;1.442;2023-04-01T07:08:56;12.20;6.00;1.00
44933;PMS3003;30667;43.614;1.442;2023-04-01T07:11:28;10.00;5.60;1.00
44933;PMS3003;30667;43.614;1.442;2023-04-01T07:14:01;8.60;6.00;1.00
44933;PMS3003;30667;43.614;1.442;2023-04-01T07:19:18;6.60;6.00;1.00
44933;PMS3003;30667;43.614;1.442;2023-04-01T07:21:50;4.60;3.00;1.00
44933;PMS3003;30667;43.614;1.442;2023-04-01T07:24:27;8.20;6.80;0.00
44933;PMS3003;30667;43.614;1.442;2023-04-01T07:26:58;8.00;4.80;0.00
44933;PMS3003;30667;43.614;1.442;2023-04-01T07:29:25;6.60;5.60;1.00
44933;PMS3003;30667;43.614;1.442;2023-04-01T07:35:09;6.00;5.00;0.20
44933;PMS3003;30667;43.614;1.442;2023-04-01T07:53:45;12.00;6.80;1.00
44933;PMS3003;30667;43.614;1.442;2023-04-01T07:56:23;5.40;4.00;1.00
44933;PMS3003;30667;43.614;1.442;2023-04-01T07:59:16;5.20;3.00;0.00
44933;PMS3003;30667;43.614;1.442;2023-04-01T08:05:24;11.80;5.80;0.60
44933;PMS3003;30667;43.614;1.442;2023-04-01T08:10:57;4.40;3.00;0.00
44933;PMS3003;30667;43.614;1.442;2023-04-01T08:13:44;5.00;5.00;0.60
44933;PMS3003;30667;43.614;1.442;2023-04-01T08:17:02;6.80;4.60;0.20
44933;PMS3003;30667;43.614;1.442;2023-04-01T08:22:12;6.40;4.20;0.00
44933;PMS3003;30667;43.614;1.442;2023-04-01T08:24:45;9.60;6.40;1.00
44933;PMS3003;30667;43.614;1.442;2023-04-01T08:30:17;4.20;3.40;0.00
44933;PMS3003;30667;43.614;1.442;2023-04-01T08:35:34;5.40;5.40;0.60
44933;PMS3003;30667;43.614;1.442;2023-04-01T08:38:10;7.00;6.00;0.40
44933;PMS3003;30667;43.614;1.442;2023-04-01T08:57:08;3.80;3.40;0.20
44933;PMS3003;30667;43.614;1.442;2023-04-01T08:59:56;2.80;2.20;0.00
44933;PMS3003;30667;43.614;1.442;2023-04-01T09:27:27;3.00;1.80;0.00
44933;PMS3003;30667;43.614;1.442;2023-04-01T09:32:53;2.00;2.00;0.00
44933;PMS3003;30667;43.614;1.442;2023-04-01T09:35:36;1.40;1.40;0.00
44933;PMS3003;30667;43.614;1.442;2023-04-01T09:46:22;1.80;1.80;0.00
44933;PMS3003;30667;43.614;1.442;2023-04-01T09:49:07;3.00;1.80;0.00
44933;PMS3003;30667;43.614;1.442;2023-04-01T09:51:52;1.40;1.40;0.00
44933;PMS3003;30667;43.614;1.442;2023-04-01T10:27:33;3.40;2.00;0.00
44933;PMS3003;30667;43.614;1.442;2023-04-01T10:30:38;1.60;1.60;0.00
44933;PMS3003;30667;43.614;1.442;2023-04-01T10:44:30;4.40;3.40;0.00
44933;PMS3003;30667;43.614;1.442;2023-04-01T10:52:54;2.00;2.00;0.00
44933;PMS3003;30667;43.614;1.442;2023-04-01T10:55:54;4.20;2.60;0.00
44933;PMS3003;30667;43.614;1.442;2023-04-01T11:13:14;3.00;2.80;1.00
44933;PMS3003;30667;43.614;1.442;2023-04-01T11:26:30;4.00;3.00;0.00
44933;PMS3003;30667;43.614;1.442;2023-04-01T11:29:18;2.00;2.00;0.00
44933;PMS3003;30667;43.614;1.442;2023-04-01T11:31:54;4.60;2.80;0.00
44933;PMS3003;30667;43.614;1.442;2023-04-01T11:40:17;3.20;2.00;0.00
44933;PMS3003;30667;43.614;1.442;2023-04-01T11:53:35;2.80;2.00;0.00
44933;PMS3003;30667;43.614;1.442;2023-04-01T12:01:59;3.00;1.20;0.00
44933;PMS3003;30667;43.614;1.442;2023-04-01T12:12:36;3.00;2.00;0.00
44933;PMS3003;30667;43.614;1.442;2023-04-01T12:17:53;1.00;1.00;0.00
44933;PMS3003;30667;43.614;1.442;2023-04-01T12:23:51;2.40;1.00;0.00
44933;PMS3003;30667;43.614;1.442;2023-04-01T12:29:37;2.40;2.00;0.00
44933;PMS3003;30667;43.614;1.442;2023-04-01T12:34:53;1.20;1.00;0.00
44933;PMS3003;30667;43.614;1.442;2023-04-01T12:45:35;1.00;1.00;0.00
44933;PMS3003;30667;43.614;1.442;2023-04-01T13:09:54;1.40;1.40;0.00
44933;PMS3003;30667;43.614;1.442;2023-04-01T13:12:36;1.80;1.00;0.00
44933;PMS3003;30667;43.614;1.442;2023-04-01T13:21:19;1.20;1.00;0.00
44933;PMS3003;30667;43.614;1.442;2023-04-01T13:42:40;1.80;0.80;0.00
44933;PMS3003;30667;43.614;1.442;2023-04-01T13:45:14;1.00;1.00;0.00
44933;PMS3003;30667;43.614;1.442;2023-04-01T13:53:22;1.60;1.00;0.00
44933;PMS3003;30667;43.614;1.442;2023-04-01T13:58:56;1.00;1.00;0.00
44933;PMS3003;30667;43.614;1.442;2023-04-01T14:12:45;1.00;1.00;0.00
44933;PMS3003;30667;43.614;1.442;2023-04-01T14:38:25;1.20;1.20;0.00
44933;PMS3003;30667;43.614;1.442;2023-04-01T14:41:00;1.20;1.00;0.00
44933;PMS3003;30667;43.614;1.442;2023-04-01T14:48:57;2.20;2.00;0.00
44933;PMS3003;30667;43.614;1.442;2023-04-01T14:51:33;2.40;1.60;0.00
44933;PMS3003;30667;43.614;1.442;2023-04-01T14:59:13;2.60;1.60;0.00
44933;PMS3003;30667;43.614;1.442;2023-04-01T15:01:54;1.00;1.00;0.00
44933;PMS3003;30667;43.614;1.442;2023-04-01T15:33:04;2.00;0.40;0.00
44933;PMS3003;30667;43.614;1.442;2023-04-01T15:35:39;1.00;1.00;0.00
44933;PMS3003;30667;43.614;1.442;2023-04-01T15:38:36;1.40;1.00;0.00
44933;PMS3003;30667;43.614;1.442;2023-04-01T15:44:24;1.00;1.00;0.00
44933;PMS3003;30667;43.614;1.442;2023-04-01T16:05:27;1.60;0.80;0.00
44933;PMS3003;30667;43.614;1.442;2023-04-01T16:08:10;2.00;1.00;0.00
44933;PMS3003;30667;43.614;1.442;2023-04-01T16:22:10;3.40;1.80;0.00
44933;PMS3003;30667;43.614;1.442;2023-04-01T16:30:48;1.80;1.00;0.00
44933;PMS3003;30667;43.614;1.442;2023-04-01T16:32:53;2.80;1.40;0.00
44933;PMS3003;30667;43.614;1.442;2023-04-01T16:35:39;1.80;1.80;0.00
44933;PMS3003;30667;43.614;1.442;2023-04-01T16:43:45;2.00;2.00;0.00
44933;PMS3003;30667;43.614;1.442;2023-04-01T16:46:34;1.00;1.00;0.00
44933;PMS3003;30667;43.614;1.442;2023-04-01T16:54:33;0.20;0.00;0.00
44933;PMS3003;30667;43.614;1.442;2023-04-01T17:04:37;0.00;0.00;0.00
44933;PMS3003;30667;43.614;1.442;2023-04-01T17:32:53;2.00;1.20;0.00
44933;PMS3003;30667;43.614;1.442;2023-04-01T17:35:42;2.00;1.00;0.00
44933;PMS3003;30667;43.614;1.442;2023-04-01T17:38:46;2.60;2.60;0.00
44933;PMS3003;30667;43.614;1.442;2023-04-01T17:44:26;2.00;1.80;0.00
44933;PMS3003;30667;43.614;1.442;2023-04-01T17:54:56;2.00;2.00;0.00
44933;PMS3003;30667;43.614;1.442;2023-04-01T17:57:57;2.60;2.00;0.00
44933;PMS3003;30667;43.614;1.442;2023-04-01T18:00:47;5.20;5.20;1.80
44933;PMS3003;30667;43.614;1.442;2023-04-01T18:14:13;3.80;3.80;0.80
44933;PMS3003;30667;43.614;1.442;2023-04-01T18:22:58;5.00;1.40;0.00
44933;PMS3003;30667;43.614;1.442;2023-04-01T18:25:35;3.80;2.00;0.00
44933;PMS3003;30667;43.614;1.442;2023-04-01T18:30:31;3.75;3.00;0.00
44933;PMS3003;30667;43.614;1.442;2023-04-01T18:38:25;4.00;2.00;0.00
44933;PMS3003;30667;43.614;1.442;2023-04-01T18:43:53;1.20;1.20;0.00
44933;PMS3003;30667;43.614;1.442;2023-04-01T18:46:34;5.40;4.20;0.80
44933;PMS3003;30667;43.614;1.442;2023-04-01T18:51:58;5.00;3.80;0.00
44933;PMS3003;30667;43.614;1.442;2023-04-01T18:54:39;5.00;2.80;1.00
44933;PMS3003;30667;43.614;1.442;2023-04-01T18:57:14;5.20;4.60;0.40
44933;PMS3003;30667;43.614;1.442;2023-04-01T18:59:42;2.40;2.40;0.00
44933;PMS3003;30667;43.614;1.442;2023-04-01T19:02:27;5.00;4.20;1.00
44933;PMS3003;30667;43.614;1.442;2023-04-01T19:05:33;4.20;2.80;0.80
44933;PMS3003;30667;43.614;1.442;2023-04-01T19:08:25;3.60;2.00;1.00
44933;PMS3003;30667;43.614;1.442;2023-04-01T19:16:12;4.60;4.00;1.00
44933;PMS3003;30667;43.614;1.442;2023-04-01T19:24:12;5.20;3.60;1.00
44933;PMS3003;30667;43.614;1.442;2023-04-01T19:52:44;12.60;11.60;5.00
44933;PMS3003;30667;43.614;1.442;2023-04-01T19:58:26;5.40;4.20;1.00
44933;PMS3003;30667;43.614;1.442;2023-04-01T20:00:55;11.80;8.80;5.00
44933;PMS3003;30667;43.614;1.442;2023-04-01T20:12:31;6.20;6.00;2.00
44933;PMS3003;30667;43.614;1.442;2023-04-01T20:18:01;8.00;6.80;2.00
44933;PMS3003;30667;43.614;1.442;2023-04-01T20:20:31;5.00;5.00;1.00
44933;PMS3003;30667;43.614;1.442;2023-04-01T20:23:05;5.40;5.00;1.00
44933;PMS3003;30667;43.614;1.442;2023-04-01T20:28:42;2.00;2.00;0.00
44933;PMS3003;30667;43.614;1.442;2023-04-01T20:31:25;2.80;2.00;0.60
44933;PMS3003;30667;43.614;1.442;2023-04-01T20:45:14;6.60;3.60;0.60
44933;PMS3003;30667;43.614;1.442;2023-04-01T20:53:20;6.00;6.00;2.00
44933;PMS3003;30667;43.614;1.442;2023-04-01T21:01:35;9.00;7.80;2.00
44933;PMS3003;30667;43.614;1.442;2023-04-01T21:07:32;7.60;4.00;1.00
44933;PMS3003;30667;43.614;1.442;2023-04-01T21:29:33;15.00;12.20;5.40
44933;PMS3003;30667;43.614;1.442;2023-04-01T21:56:44;5.80;5.00;1.00
44933;PMS3003;30667;43.614;1.442;2023-04-01T22:05:04;4.80;4.80;1.40
44933;PMS3003;30667;43.614;1.442;2023-04-01T22:07:50;4.00;4.00;1.00
44933;PMS3003;30667;43.614;1.442;2023-04-01T22:10:21;5.00;5.00;1.00
44933;PMS3003;30667;43.614;1.442;2023-04-01T22:18:34;3.20;2.40;0.80
44933;PMS3003;30667;43.614;1.442;2023-04-01T22:21:25;4.40;4.40;1.20
44933;PMS3003;30667;43.614;1.442;2023-04-01T22:32:16;4.00;2.80;0.00
44933;PMS3003;30667;43.614;1.442;2023-04-01T22:43:01;7.40;4.00;0.20
44933;PMS3003;30667;43.614;1.442;2023-04-01T22:45:37;1.40;1.40;0.00
44933;PMS3003;30667;43.614;1.442;2023-04-01T22:50:51;2.80;2.80;0.00
44933;PMS3003;30667;43.614;1.442;2023-04-01T22:56:07;4.00;4.00;0.00
44933;PMS3003;30667;43.614;1.442;2023-04-01T22:58:46;5.40;4.40;0.40
44933;PMS3003;30667;43.614;1.442;2023-04-01T23:01:17;2.00;1.00;0.00
44933;PMS3003;30667;43.614;1.442;2023-04-01T23:03:48;4.40;4.00;0.00
44933;PMS3003;30667;43.614;1.442;2023-04-01T23:06:18;2.00;2.00;0.00
44933;PMS3003;30667;43.614;1.442;2023-04-01T23:11:50;4.40;4.00;0.00
44933;PMS3003;30667;43.614;1.442;2023-04-01T23:19:37;2.00;2.00;0.00
44933;PMS3003;30667;43.614;1.442;2023-04-01T23:22:19;2.40;2.40;0.00
44933;PMS3003;30667;43.614;1.442;2023-04-01T23:25:17;4.60;2.00;0.40
44933;PMS3003;30667;43.614;1.442;2023-04-01T23:27:56;3.60;2.80;0.00
44933;PMS3003;30667;43.614;1.442;2023-04-01T23:33:11;5.25;3.50;0.00
44933;PMS3003;30667;43.614;1.442;2023-04-01T23:38:31;2.00;1.00;0.00
44933;PMS3003;30667;43.614;1.442;2023-04-01T23:41:02;3.60;2.00;0.00
44933;PMS3003;30667;43.614;1.442;2023-04-01T23:43:30;4.00;3.60;0.00
44933;PMS3003;30667;43.614;1.442;2023-04-01T23:46:02;1.40;1.20;0.00
44933;PMS3003;30667;43.614;1.442;2023-04-01T23:48:39;2.00;2.00;0.00
44933;PMS3003;30667;43.614;1.442;2023-04-01T23:51:18;3.20;1.60;0.00
44933;PMS3003;30667;43.614;1.442;2023-04-01T23:53:48;3.60;2.00;0.00
44933;PMS3003;30667;43.614;1.442;2023-04-01T23:56:22;1.40;1.40;0.00
44933;PMS3003;30667;43.614;1.442;2023-04-01T23:58:49;1.00;1.00;0.00
